Pecos, TX (79772)

10:42 PM CDT on September 25, 2016 (GMT -0500)
Duval Rd | | Change Station

Elev 2680 ft 31.47 °N, 103.60 °W | Updated 14 minutes ago

Overcast
Overcast
60.4 °F
Feels Like 60.4 °F
N
4.7
Wind Variable Wind from NE

Today
High -- | Low -- °F
--% Chance of Precip.
Yesterday
High -- | Low -- °F
Precip. -- in
Pressure 30.23 in
Visibility 10.0 miles
Clouds Mostly Cloudy 1800 ft
Mostly Cloudy 4100 ft
Overcast 4800 ft
Dew Point 57 °F
Humidity 88%
Rainfall 0.58 in
Snow Depth Not available.
7:45 AM 7:46 PM
Waning Crescent, 22% visible
METAR KPEQ 260335Z AUTO 02009KT 10SM BKN018 BKN041 OVC048 16/14 A3023 RMK AO2 T01580137
Pressure 30.23 in
Visibility 10.0 miles
Clouds Mostly Cloudy 1800 ft
Mostly Cloudy 4100 ft
Overcast 4800 ft
Dew Point 57 °F
Humidity 88%
Rainfall 0.58 in
Snow Depth Not available.
7:45 AM 7:46 PM
Waning Crescent, 22% visible
METAR KPEQ 260335Z AUTO 02009KT 10SM BKN018 BKN041 OVC048 16/14 A3023 RMK AO2 T01580137

10-Day Weather Forecast

Almanac

Astronomy

Sep. 25, 2016 Rise Set
Actual Time
Civil Twilight
Nautical Twilight
Astronomical Twilight
Moon
Length of Visible Light
Length of Day
Tomorrow will be .
, % of the Moon is Illuminated

Today's Extremes

State Highs State Lows

Community

WunderPhotos

Upload Photos

1,941,837 photos uploaded!

WunderBlog® & News

Nearby

Air Quality

  Air Quality AQ Index Pollutant
Not available.

Snow Depth

Station Depth Elevation

Earthquake Activity

City Distance Mag. Time & Date
Minimum magnitude displayed is 2.5.

Coastal Water Temperatures

Place Temperature

Stations

Nearby Weather Stations

Station Location Temp. Windchill Dew Point Humidity Wind Precip. Elev Updated Type
                   

Watches & Warnings

There are currently no watches in effect.